sensor_id;sensor_type;location;lat;lon;timestamp;temperature;humidity
11569;DHT22;5840;46.894;15.542;2023-07-28T00:02:22;16.60;99.90
11569;DHT22;5840;46.894;15.542;2023-07-28T00:04:50;16.60;99.90
11569;DHT22;5840;46.894;15.542;2023-07-28T00:07:18;16.60;99.90
11569;DHT22;5840;46.894;15.542;2023-07-28T00:09:45;16.60;99.90
11569;DHT22;5840;46.894;15.542;2023-07-28T00:12:14;16.70;99.90
11569;DHT22;5840;46.894;15.542;2023-07-28T00:14:44;16.70;99.90
11569;DHT22;5840;46.894;15.542;2023-07-28T00:17:13;16.70;99.90
11569;DHT22;5840;46.894;15.542;2023-07-28T00:19:44;16.60;99.90
11569;DHT22;5840;46.894;15.542;2023-07-28T00:22:12;16.60;99.90
11569;DHT22;5840;46.894;15.542;2023-07-28T00:24:39;16.60;99.90
11569;DHT22;5840;46.894;15.542;2023-07-28T00:27:06;16.50;99.90
11569;DHT22;5840;46.894;15.542;2023-07-28T00:29:33;16.50;99.90
11569;DHT22;5840;46.894;15.542;2023-07-28T00:32:01;16.50;99.90
11569;DHT22;5840;46.894;15.542;2023-07-28T00:34:28;16.50;99.90
11569;DHT22;5840;46.894;15.542;2023-07-28T00:36:55;16.40;99.90
11569;DHT22;5840;46.894;15.542;2023-07-28T00:39:22;16.40;99.90
11569;DHT22;5840;46.894;15.542;2023-07-28T00:41:49;16.30;99.90
11569;DHT22;5840;46.894;15.542;2023-07-28T00:44:16;16.30;99.90
11569;DHT22;5840;46.894;15.542;2023-07-28T00:46:43;16.20;99.90
11569;DHT22;5840;46.894;15.542;2023-07-28T00:49:11;16.20;99.90
11569;DHT22;5840;46.894;15.542;2023-07-28T00:51:39;16.20;99.90
11569;DHT22;5840;46.894;15.542;2023-07-28T00:54:06;16.20;99.90
11569;DHT22;5840;46.894;15.542;2023-07-28T00:56:33;16.20;99.90
11569;DHT22;5840;46.894;15.542;2023-07-28T00:59:00;16.20;99.90
11569;DHT22;5840;46.894;15.542;2023-07-28T01:01:27;16.20;99.90
11569;DHT22;5840;46.894;15.542;2023-07-28T01:03:54;16.10;99.90
11569;DHT22;5840;46.894;15.542;2023-07-28T01:06:30;16.20;99.90
11569;DHT22;5840;46.894;15.542;2023-07-28T01:09:05;16.20;99.90
11569;DHT22;5840;46.894;15.542;2023-07-28T01:11:36;16.10;99.90
11569;DHT22;5840;46.894;15.542;2023-07-28T01:14:03;16.10;99.90
11569;DHT22;5840;46.894;15.542;2023-07-28T01:16:30;16.00;99.90
11569;DHT22;5840;46.894;15.542;2023-07-28T01:18:57;16.00;99.90
11569;DHT22;5840;46.894;15.542;2023-07-28T01:21:28;15.90;99.90
11569;DHT22;5840;46.894;15.542;2023-07-28T01:24:01;15.90;99.90
11569;DHT22;5840;46.894;15.542;2023-07-28T01:26:33;15.90;99.90
11569;DHT22;5840;46.894;15.542;2023-07-28T01:29:01;15.90;99.90
11569;DHT22;5840;46.894;15.542;2023-07-28T01:31:29;15.90;99.90
11569;DHT22;5840;46.894;15.542;2023-07-28T01:33:56;15.80;99.90
11569;DHT22;5840;46.894;15.542;2023-07-28T01:36:23;15.80;99.90
11569;DHT22;5840;46.894;15.542;2023-07-28T01:38:50;15.80;99.90
11569;DHT22;5840;46.894;15.542;2023-07-28T01:41:17;15.80;99.90
11569;DHT22;5840;46.894;15.542;2023-07-28T01:43:45;15.80;99.90
11569;DHT22;5840;46.894;15.542;2023-07-28T01:46:12;15.80;99.90
11569;DHT22;5840;46.894;15.542;2023-07-28T01:48:39;15.70;99.90
11569;DHT22;5840;46.894;15.542;2023-07-28T01:51:06;15.70;99.90
11569;DHT22;5840;46.894;15.542;2023-07-28T01:53:33;15.70;99.90
11569;DHT22;5840;46.894;15.542;2023-07-28T01:56:00;15.60;99.90
11569;DHT22;5840;46.894;15.542;2023-07-28T01:58:27;15.60;99.90
11569;DHT22;5840;46.894;15.542;2023-07-28T02:00:55;15.60;99.90
11569;DHT22;5840;46.894;15.542;2023-07-28T02:03:22;15.60;99.90
11569;DHT22;5840;46.894;15.542;2023-07-28T02:05:49;15.60;99.90
11569;DHT22;5840;46.894;15.542;2023-07-28T02:08:16;15.50;99.90
11569;DHT22;5840;46.894;15.542;2023-07-28T02:10:44;15.60;99.90
11569;DHT22;5840;46.894;15.542;2023-07-28T02:13:11;15.60;99.90
11569;DHT22;5840;46.894;15.542;2023-07-28T02:15:38;15.50;99.90
11569;DHT22;5840;46.894;15.542;2023-07-28T02:18:06;15.50;99.90
11569;DHT22;5840;46.894;15.542;2023-07-28T02:20:33;15.40;99.90
11569;DHT22;5840;46.894;15.542;2023-07-28T02:23:01;15.50;99.90
11569;DHT22;5840;46.894;15.542;2023-07-28T02:25:28;15.40;99.90
11569;DHT22;5840;46.894;15.542;2023-07-28T02:27:55;15.40;99.90
11569;DHT22;5840;46.894;15.542;2023-07-28T02:30:22;15.30;99.90
11569;DHT22;5840;46.894;15.542;2023-07-28T02:32:48;15.30;99.90
11569;DHT22;5840;46.894;15.542;2023-07-28T02:35:17;15.20;99.90
11569;DHT22;5840;46.894;15.542;2023-07-28T02:37:44;15.20;99.90
11569;DHT22;5840;46.894;15.542;2023-07-28T02:40:11;15.10;99.90
11569;DHT22;5840;46.894;15.542;2023-07-28T02:42:38;15.10;99.90
11569;DHT22;5840;46.894;15.542;2023-07-28T02:45:06;15.10;99.90
11569;DHT22;5840;46.894;15.542;2023-07-28T02:47:35;15.00;99.90
11569;DHT22;5840;46.894;15.542;2023-07-28T02:50:03;14.90;99.90
11569;DHT22;5840;46.894;15.542;2023-07-28T02:52:31;14.90;99.90
11569;DHT22;5840;46.894;15.542;2023-07-28T02:54:58;14.80;99.90
11569;DHT22;5840;46.894;15.542;2023-07-28T02:57:25;14.80;99.90
11569;DHT22;5840;46.894;15.542;2023-07-28T02:59:52;14.70;99.90
11569;DHT22;5840;46.894;15.542;2023-07-28T03:02:19;14.70;99.90
11569;DHT22;5840;46.894;15.542;2023-07-28T03:04:45;14.70;99.90
11569;DHT22;5840;46.894;15.542;2023-07-28T03:07:13;14.70;99.90
11569;DHT22;5840;46.894;15.542;2023-07-28T03:09:41;14.70;99.90
11569;DHT22;5840;46.894;15.542;2023-07-28T03:12:08;14.70;99.90
11569;DHT22;5840;46.894;15.542;2023-07-28T03:14:35;14.60;99.90
11569;DHT22;5840;46.894;15.542;2023-07-28T03:17:02;14.50;99.90
11569;DHT22;5840;46.894;15.542;2023-07-28T03:19:29;14.50;99.90
11569;DHT22;5840;46.894;15.542;2023-07-28T03:21:56;14.50;99.90
11569;DHT22;5840;46.894;15.542;2023-07-28T03:24:23;14.50;99.90
11569;DHT22;5840;46.894;15.542;2023-07-28T03:26:52;14.50;99.90
11569;DHT22;5840;46.894;15.542;2023-07-28T03:29:18;14.50;99.90
11569;DHT22;5840;46.894;15.542;2023-07-28T03:31:45;14.40;99.90
11569;DHT22;5840;46.894;15.542;2023-07-28T03:34:12;14.40;99.90
11569;DHT22;5840;46.894;15.542;2023-07-28T03:36:39;14.40;99.90
11569;DHT22;5840;46.894;15.542;2023-07-28T03:39:06;14.30;99.90
11569;DHT22;5840;46.894;15.542;2023-07-28T03:41:33;14.30;99.90
11569;DHT22;5840;46.894;15.542;2023-07-28T03:44:01;14.30;99.90
11569;DHT22;5840;46.894;15.542;2023-07-28T03:46:28;14.30;99.90
11569;DHT22;5840;46.894;15.542;2023-07-28T03:48:55;14.30;99.90
11569;DHT22;5840;46.894;15.542;2023-07-28T03:51:23;14.30;99.90
11569;DHT22;5840;46.894;15.542;2023-07-28T03:53:50;14.40;99.90
11569;DHT22;5840;46.894;15.542;2023-07-28T03:56:17;14.40;99.90
11569;DHT22;5840;46.894;15.542;2023-07-28T03:58:44;14.30;99.90
11569;DHT22;5840;46.894;15.542;2023-07-28T04:01:12;14.30;99.90
11569;DHT22;5840;46.894;15.542;2023-07-28T04:03:39;14.40;99.90
11569;DHT22;5840;46.894;15.542;2023-07-28T04:06:10;14.40;99.90
11569;DHT22;5840;46.894;15.542;2023-07-28T04:08:37;14.30;99.90
11569;DHT22;5840;46.894;15.542;2023-07-28T04:11:04;14.30;99.90
11569;DHT22;5840;46.894;15.542;2023-07-28T04:13:31;14.30;99.90
11569;DHT22;5840;46.894;15.542;2023-07-28T04:15:58;14.30;99.90
11569;DHT22;5840;46.894;15.542;2023-07-28T04:18:26;14.30;99.90
11569;DHT22;5840;46.894;15.542;2023-07-28T04:20:53;14.30;99.90
11569;DHT22;5840;46.894;15.542;2023-07-28T04:23:20;14.30;99.90
11569;DHT22;5840;46.894;15.542;2023-07-28T04:25:47;14.30;99.90
11569;DHT22;5840;46.894;15.542;2023-07-28T04:28:14;14.30;99.90
11569;DHT22;5840;46.894;15.542;2023-07-28T04:30:41;14.30;99.90
11569;DHT22;5840;46.894;15.542;2023-07-28T04:33:08;14.30;99.90
11569;DHT22;5840;46.894;15.542;2023-07-28T04:35:36;14.30;99.90
11569;DHT22;5840;46.894;15.542;2023-07-28T04:38:03;14.30;99.90
11569;DHT22;5840;46.894;15.542;2023-07-28T04:40:30;14.30;99.90
11569;DHT22;5840;46.894;15.542;2023-07-28T04:42:57;14.30;99.90
11569;DHT22;5840;46.894;15.542;2023-07-28T04:45:23;14.30;99.90
11569;DHT22;5840;46.894;15.542;2023-07-28T04:47:50;14.30;99.90
11569;DHT22;5840;46.894;15.542;2023-07-28T04:50:18;14.30;99.90
11569;DHT22;5840;46.894;15.542;2023-07-28T04:52:46;14.30;99.90
11569;DHT22;5840;46.894;15.542;2023-07-28T04:55:13;14.40;99.90
11569;DHT22;5840;46.894;15.542;2023-07-28T04:57:40;14.40;99.90
11569;DHT22;5840;46.894;15.542;2023-07-28T05:00:08;14.40;99.90
11569;DHT22;5840;46.894;15.542;2023-07-28T05:02:35;14.40;99.90
11569;DHT22;5840;46.894;15.542;2023-07-28T05:05:02;14.40;99.90
11569;DHT22;5840;46.894;15.542;2023-07-28T05:07:29;14.40;99.90
11569;DHT22;5840;46.894;15.542;2023-07-28T05:09:56;14.40;99.90
11569;DHT22;5840;46.894;15.542;2023-07-28T05:12:23;14.50;99.90
11569;DHT22;5840;46.894;15.542;2023-07-28T05:14:50;14.50;99.90
11569;DHT22;5840;46.894;15.542;2023-07-28T05:17:17;14.60;99.90
11569;DHT22;5840;46.894;15.542;2023-07-28T05:19:44;14.60;99.90
11569;DHT22;5840;46.894;15.542;2023-07-28T05:22:11;14.70;99.90
11569;DHT22;5840;46.894;15.542;2023-07-28T05:24:38;14.80;99.90
11569;DHT22;5840;46.894;15.542;2023-07-28T05:27:06;14.90;99.90
11569;DHT22;5840;46.894;15.542;2023-07-28T05:29:33;14.90;99.90
11569;DHT22;5840;46.894;15.542;2023-07-28T05:32:00;15.00;99.90
11569;DHT22;5840;46.894;15.542;2023-07-28T05:34:27;15.10;99.90
11569;DHT22;5840;46.894;15.542;2023-07-28T05:36:54;15.10;99.90
11569;DHT22;5840;46.894;15.542;2023-07-28T05:39:21;15.20;99.90
11569;DHT22;5840;46.894;15.542;2023-07-28T05:41:48;15.30;99.90
11569;DHT22;5840;46.894;15.542;2023-07-28T05:44:17;15.40;99.90
11569;DHT22;5840;46.894;15.542;2023-07-28T05:46:43;15.60;99.90
11569;DHT22;5840;46.894;15.542;2023-07-28T05:49:11;15.70;99.90
11569;DHT22;5840;46.894;15.542;2023-07-28T05:51:38;15.80;99.90
11569;DHT22;5840;46.894;15.542;2023-07-28T05:54:05;16.00;99.90
11569;DHT22;5840;46.894;15.542;2023-07-28T05:56:32;16.10;99.90
11569;DHT22;5840;46.894;15.542;2023-07-28T05:58:58;16.20;99.90
11569;DHT22;5840;46.894;15.542;2023-07-28T06:01:27;16.40;99.90
11569;DHT22;5840;46.894;15.542;2023-07-28T06:03:54;16.60;99.90
11569;DHT22;5840;46.894;15.542;2023-07-28T06:06:24;16.80;99.90
11569;DHT22;5840;46.894;15.542;2023-07-28T06:08:51;16.80;99.90
11569;DHT22;5840;46.894;15.542;2023-07-28T06:11:18;16.90;99.90
11569;DHT22;5840;46.894;15.542;2023-07-28T06:13:45;17.10;99.90
11569;DHT22;5840;46.894;15.542;2023-07-28T06:16:12;17.20;99.90
11569;DHT22;5840;46.894;15.542;2023-07-28T06:18:40;17.40;99.90
11569;DHT22;5840;46.894;15.542;2023-07-28T06:21:07;17.60;99.90
11569;DHT22;5840;46.894;15.542;2023-07-28T06:23:34;17.80;99.90
11569;DHT22;5840;46.894;15.542;2023-07-28T06:26:01;17.90;99.90
11569;DHT22;5840;46.894;15.542;2023-07-28T06:28:28;18.10;99.90
11569;DHT22;5840;46.894;15.542;2023-07-28T06:30:55;18.20;99.90
11569;DHT22;5840;46.894;15.542;2023-07-28T06:33:23;18.40;99.90
11569;DHT22;5840;46.894;15.542;2023-07-28T06:35:52;18.50;99.90
11569;DHT22;5840;46.894;15.542;2023-07-28T06:38:19;18.60;99.90
11569;DHT22;5840;46.894;15.542;2023-07-28T06:40:45;18.80;99.90
11569;DHT22;5840;46.894;15.542;2023-07-28T06:43:12;18.90;99.90
11569;DHT22;5840;46.894;15.542;2023-07-28T06:45:39;19.10;99.90
11569;DHT22;5840;46.894;15.542;2023-07-28T06:48:07;19.20;99.90
11569;DHT22;5840;46.894;15.542;2023-07-28T06:50:34;19.40;99.90
11569;DHT22;5840;46.894;15.542;2023-07-28T06:53:02;19.60;99.90
11569;DHT22;5840;46.894;15.542;2023-07-28T06:55:29;19.70;99.90
11569;DHT22;5840;46.894;15.542;2023-07-28T06:57:56;19.80;99.90
11569;DHT22;5840;46.894;15.542;2023-07-28T07:00:23;19.90;99.90
11569;DHT22;5840;46.894;15.542;2023-07-28T07:02:50;20.10;99.90
11569;DHT22;5840;46.894;15.542;2023-07-28T07:05:17;20.40;99.90
11569;DHT22;5840;46.894;15.542;2023-07-28T07:07:44;20.60;99.90
11569;DHT22;5840;46.894;15.542;2023-07-28T07:10:12;20.90;99.90
11569;DHT22;5840;46.894;15.542;2023-07-28T07:12:39;21.10;99.90
11569;DHT22;5840;46.894;15.542;2023-07-28T07:15:07;21.20;99.90
11569;DHT22;5840;46.894;15.542;2023-07-28T07:17:34;21.30;99.90
11569;DHT22;5840;46.894;15.542;2023-07-28T07:20:01;21.40;99.90
11569;DHT22;5840;46.894;15.542;2023-07-28T07:22:28;21.50;99.90
11569;DHT22;5840;46.894;15.542;2023-07-28T07:24:55;21.80;99.90
11569;DHT22;5840;46.894;15.542;2023-07-28T07:27:25;21.80;99.90
11569;DHT22;5840;46.894;15.542;2023-07-28T07:29:52;21.90;99.90
11569;DHT22;5840;46.894;15.542;2023-07-28T07:32:19;22.00;99.90
11569;DHT22;5840;46.894;15.542;2023-07-28T07:34:46;22.10;99.90
11569;DHT22;5840;46.894;15.542;2023-07-28T07:37:13;22.20;99.90
11569;DHT22;5840;46.894;15.542;2023-07-28T07:39:39;22.20;99.90
11569;DHT22;5840;46.894;15.542;2023-07-28T07:42:09;22.30;99.90
11569;DHT22;5840;46.894;15.542;2023-07-28T07:44:38;22.40;99.90
11569;DHT22;5840;46.894;15.542;2023-07-28T07:47:12;22.60;99.90
11569;DHT22;5840;46.894;15.542;2023-07-28T07:49:39;22.70;99.90
11569;DHT22;5840;46.894;15.542;2023-07-28T07:52:07;22.80;99.90
11569;DHT22;5840;46.894;15.542;2023-07-28T07:54:34;23.00;99.90
11569;DHT22;5840;46.894;15.542;2023-07-28T07:57:01;23.10;99.90
11569;DHT22;5840;46.894;15.542;2023-07-28T07:59:28;23.20;99.90
11569;DHT22;5840;46.894;15.542;2023-07-28T08:01:59;23.30;99.90
11569;DHT22;5840;46.894;15.542;2023-07-28T08:04:29;23.30;99.90
11569;DHT22;5840;46.894;15.542;2023-07-28T08:06:56;23.30;99.90
11569;DHT22;5840;46.894;15.542;2023-07-28T08:09:23;23.20;99.90
11569;DHT22;5840;46.894;15.542;2023-07-28T08:11:49;23.20;99.90
11569;DHT22;5840;46.894;15.542;2023-07-28T08:14:16;23.30;99.90
11569;DHT22;5840;46.894;15.542;2023-07-28T08:16:43;23.40;99.90
11569;DHT22;5840;46.894;15.542;2023-07-28T08:19:12;23.50;99.90
11569;DHT22;5840;46.894;15.542;2023-07-28T08:21:39;23.70;99.90
11569;DHT22;5840;46.894;15.542;2023-07-28T08:24:06;23.70;99.90
11569;DHT22;5840;46.894;15.542;2023-07-28T08:26:34;23.80;99.90
11569;DHT22;5840;46.894;15.542;2023-07-28T08:29:01;23.80;99.90
11569;DHT22;5840;46.894;15.542;2023-07-28T08:31:28;23.80;99.90
11569;DHT22;5840;46.894;15.542;2023-07-28T08:33:55;23.80;99.90
11569;DHT22;5840;46.894;15.542;2023-07-28T08:36:23;24.00;99.90
11569;DHT22;5840;46.894;15.542;2023-07-28T08:38:50;24.10;99.90
11569;DHT22;5840;46.894;15.542;2023-07-28T08:41:17;24.10;99.90
11569;DHT22;5840;46.894;15.542;2023-07-28T08:43:45;24.30;99.90
11569;DHT22;5840;46.894;15.542;2023-07-28T08:46:12;24.50;99.90
11569;DHT22;5840;46.894;15.542;2023-07-28T08:48:39;24.80;99.90
11569;DHT22;5840;46.894;15.542;2023-07-28T08:51:06;25.00;99.90
11569;DHT22;5840;46.894;15.542;2023-07-28T08:53:35;25.30;99.90
11569;DHT22;5840;46.894;15.542;2023-07-28T08:56:02;25.50;99.90
11569;DHT22;5840;46.894;15.542;2023-07-28T08:58:30;25.80;99.90
11569;DHT22;5840;46.894;15.542;2023-07-28T09:00:57;26.00;99.90
11569;DHT22;5840;46.894;15.542;2023-07-28T09:03:27;26.10;99.90
11569;DHT22;5840;46.894;15.542;2023-07-28T09:05:59;26.20;98.60
11569;DHT22;5840;46.894;15.542;2023-07-28T09:08:26;26.30;99.90
11569;DHT22;5840;46.894;15.542;2023-07-28T09:10:54;26.40;98.50
11569;DHT22;5840;46.894;15.542;2023-07-28T09:13:21;26.60;99.90
11569;DHT22;5840;46.894;15.542;2023-07-28T09:15:48;26.80;98.30
11569;DHT22;5840;46.894;15.542;2023-07-28T09:18:16;26.80;99.90
11569;DHT22;5840;46.894;15.542;2023-07-28T09:20:43;26.90;98.90
11569;DHT22;5840;46.894;15.542;2023-07-28T09:23:12;27.00;99.70
11569;DHT22;5840;46.894;15.542;2023-07-28T09:25:39;27.10;97.30
11569;DHT22;5840;46.894;15.542;2023-07-28T09:28:08;27.20;98.90
11569;DHT22;5840;46.894;15.542;2023-07-28T09:30:46;27.40;98.80
11569;DHT22;5840;46.894;15.542;2023-07-28T09:33:28;27.50;97.50
11569;DHT22;5840;46.894;15.542;2023-07-28T09:35:55;27.60;97.60
11569;DHT22;5840;46.894;15.542;2023-07-28T09:38:23;27.90;98.30
11569;DHT22;5840;46.894;15.542;2023-07-28T09:40:51;27.90;96.70
11569;DHT22;5840;46.894;15.542;2023-07-28T09:43:19;28.10;97.80
11569;DHT22;5840;46.894;15.542;2023-07-28T09:45:46;28.30;99.00
11569;DHT22;5840;46.894;15.542;2023-07-28T09:48:13;28.50;99.80
11569;DHT22;5840;46.894;15.542;2023-07-28T09:50:42;28.60;99.90
11569;DHT22;5840;46.894;15.542;2023-07-28T09:53:10;28.70;99.00
11569;DHT22;5840;46.894;15.542;2023-07-28T09:55:39;28.60;96.60
11569;DHT22;5840;46.894;15.542;2023-07-28T09:58:09;28.70;96.30
11569;DHT22;5840;46.894;15.542;2023-07-28T10:00:39;28.50;97.90
11569;DHT22;5840;46.894;15.542;2023-07-28T10:03:07;28.60;96.30
11569;DHT22;5840;46.894;15.542;2023-07-28T10:05:34;28.80;96.50
11569;DHT22;5840;46.894;15.542;2023-07-28T10:08:02;28.80;96.30
11569;DHT22;5840;46.894;15.542;2023-07-28T10:10:30;28.90;95.40
11569;DHT22;5840;46.894;15.542;2023-07-28T10:12:58;29.10;97.70
11569;DHT22;5840;46.894;15.542;2023-07-28T10:15:28;29.10;95.80
11569;DHT22;5840;46.894;15.542;2023-07-28T10:17:58;29.10;95.40
11569;DHT22;5840;46.894;15.542;2023-07-28T10:20:34;29.20;99.90
11569;DHT22;5840;46.894;15.542;2023-07-28T10:23:11;29.40;97.70
11569;DHT22;5840;46.894;15.542;2023-07-28T10:25:39;29.50;98.50
11569;DHT22;5840;46.894;15.542;2023-07-28T10:28:07;29.70;98.30
11569;DHT22;5840;46.894;15.542;2023-07-28T10:30:40;29.70;95.90
11569;DHT22;5840;46.894;15.542;2023-07-28T10:33:31;29.80;98.70
11569;DHT22;5840;46.894;15.542;2023-07-28T10:35:59;29.90;96.90
11569;DHT22;5840;46.894;15.542;2023-07-28T10:38:33;29.80;96.60
11569;DHT22;5840;46.894;15.542;2023-07-28T10:41:09;29.80;95.70
11569;DHT22;5840;46.894;15.542;2023-07-28T10:43:37;29.80;94.90
11569;DHT22;5840;46.894;15.542;2023-07-28T10:46:05;29.80;97.30
11569;DHT22;5840;46.894;15.542;2023-07-28T10:48:36;30.10;97.70
11569;DHT22;5840;46.894;15.542;2023-07-28T10:51:03;30.10;97.60
11569;DHT22;5840;46.894;15.542;2023-07-28T10:53:31;30.20;97.80
11569;DHT22;5840;46.894;15.542;2023-07-28T10:56:00;30.30;96.50
11569;DHT22;5840;46.894;15.542;2023-07-28T10:58:27;30.30;96.40
11569;DHT22;5840;46.894;15.542;2023-07-28T11:00:54;30.40;96.40
11569;DHT22;5840;46.894;15.542;2023-07-28T11:03:22;30.40;99.00
11569;DHT22;5840;46.894;15.542;2023-07-28T11:05:51;30.60;97.10
11569;DHT22;5840;46.894;15.542;2023-07-28T11:08:18;30.50;97.10
11569;DHT22;5840;46.894;15.542;2023-07-28T11:10:45;30.60;97.10
11569;DHT22;5840;46.894;15.542;2023-07-28T11:13:13;30.70;97.30
11569;DHT22;5840;46.894;15.542;2023-07-28T11:15:40;30.60;97.00
11569;DHT22;5840;46.894;15.542;2023-07-28T11:18:08;30.60;97.60
11569;DHT22;5840;46.894;15.542;2023-07-28T11:20:35;30.50;96.20
11569;DHT22;5840;46.894;15.542;2023-07-28T11:23:04;30.50;97.70
11569;DHT22;5840;46.894;15.542;2023-07-28T11:25:33;30.60;95.20
11569;DHT22;5840;46.894;15.542;2023-07-28T11:28:01;30.50;97.00
11569;DHT22;5840;46.894;15.542;2023-07-28T11:30:31;30.50;97.10
11569;DHT22;5840;46.894;15.542;2023-07-28T11:32:59;30.50;97.80
11569;DHT22;5840;46.894;15.542;2023-07-28T11:35:26;30.50;97.70
11569;DHT22;5840;46.894;15.542;2023-07-28T11:37:53;30.40;96.20
11569;DHT22;5840;46.894;15.542;2023-07-28T11:40:23;29.90;97.00
11569;DHT22;5840;46.894;15.542;2023-07-28T11:42:54;29.80;97.60
11569;DHT22;5840;46.894;15.542;2023-07-28T11:45:22;29.70;98.20
11569;DHT22;5840;46.894;15.542;2023-07-28T11:47:55;29.50;97.30
11569;DHT22;5840;46.894;15.542;2023-07-28T11:50:23;29.50;97.70
11569;DHT22;5840;46.894;15.542;2023-07-28T11:52:50;29.50;96.60
11569;DHT22;5840;46.894;15.542;2023-07-28T11:55:18;29.70;97.80
11569;DHT22;5840;46.894;15.542;2023-07-28T11:57:48;29.80;96.40
11569;DHT22;5840;46.894;15.542;2023-07-28T12:00:15;30.00;99.90
11569;DHT22;5840;46.894;15.542;2023-07-28T12:02:43;30.20;96.60
11569;DHT22;5840;46.894;15.542;2023-07-28T12:05:14;30.50;96.50
11569;DHT22;5840;46.894;15.542;2023-07-28T12:07:41;30.50;96.20
11569;DHT22;5840;46.894;15.542;2023-07-28T12:10:13;30.60;93.10
11569;DHT22;5840;46.894;15.542;2023-07-28T12:12:42;30.80;97.40
11569;DHT22;5840;46.894;15.542;2023-07-28T12:15:24;30.90;95.70
11569;DHT22;5840;46.894;15.542;2023-07-28T12:18:10;31.00;94.80
11569;DHT22;5840;46.894;15.542;2023-07-28T12:20:40;31.00;94.40
11569;DHT22;5840;46.894;15.542;2023-07-28T12:23:07;31.00;94.70
11569;DHT22;5840;46.894;15.542;2023-07-28T12:25:36;31.00;94.30
11569;DHT22;5840;46.894;15.542;2023-07-28T12:28:03;30.70;93.10
11569;DHT22;5840;46.894;15.542;2023-07-28T12:30:32;30.90;96.10
11569;DHT22;5840;46.894;15.542;2023-07-28T12:32:59;30.90;94.60
11569;DHT22;5840;46.894;15.542;2023-07-28T12:35:26;30.90;92.40
11569;DHT22;5840;46.894;15.542;2023-07-28T12:37:56;31.10;91.80
11569;DHT22;5840;46.894;15.542;2023-07-28T12:40:27;31.30;93.40
11569;DHT22;5840;46.894;15.542;2023-07-28T12:42:56;31.30;95.10
11569;DHT22;5840;46.894;15.542;2023-07-28T12:45:23;31.20;95.00
11569;DHT22;5840;46.894;15.542;2023-07-28T12:47:53;31.30;94.30
11569;DHT22;5840;46.894;15.542;2023-07-28T12:50:20;31.20;91.20
11569;DHT22;5840;46.894;15.542;2023-07-28T12:52:47;31.20;91.10
11569;DHT22;5840;46.894;15.542;2023-07-28T12:55:15;31.30;92.00
11569;DHT22;5840;46.894;15.542;2023-07-28T12:57:42;31.30;90.80
11569;DHT22;5840;46.894;15.542;2023-07-28T13:00:10;31.40;91.70
11569;DHT22;5840;46.894;15.542;2023-07-28T13:02:39;31.50;93.50
11569;DHT22;5840;46.894;15.542;2023-07-28T13:05:09;31.50;91.50
11569;DHT22;5840;46.894;15.542;2023-07-28T13:07:37;31.50;93.00
11569;DHT22;5840;46.894;15.542;2023-07-28T13:10:06;31.50;91.20
11569;DHT22;5840;46.894;15.542;2023-07-28T13:12:34;31.50;92.70
11569;DHT22;5840;46.894;15.542;2023-07-28T13:15:03;31.70;90.40
11569;DHT22;5840;46.894;15.542;2023-07-28T13:17:31;31.60;88.80
11569;DHT22;5840;46.894;15.542;2023-07-28T13:19:58;31.70;93.20
11569;DHT22;5840;46.894;15.542;2023-07-28T13:22:26;31.80;91.30
11569;DHT22;5840;46.894;15.542;2023-07-28T13:24:53;31.90;86.40
11569;DHT22;5840;46.894;15.542;2023-07-28T13:27:20;32.00;89.60
11569;DHT22;5840;46.894;15.542;2023-07-28T13:29:47;32.10;90.40
11569;DHT22;5840;46.894;15.542;2023-07-28T13:32:22;32.00;90.60
11569;DHT22;5840;46.894;15.542;2023-07-28T13:34:49;31.80;87.60
11569;DHT22;5840;46.894;15.542;2023-07-28T13:37:17;31.50;86.30
11569;DHT22;5840;46.894;15.542;2023-07-28T13:39:46;31.50;86.90
11569;DHT22;5840;46.894;15.542;2023-07-28T13:42:13;31.50;85.80
11569;DHT22;5840;46.894;15.542;2023-07-28T13:44:41;31.70;91.00
11569;DHT22;5840;46.894;15.542;2023-07-28T13:47:08;31.60;86.50
11569;DHT22;5840;46.894;15.542;2023-07-28T13:49:35;31.70;89.70
11569;DHT22;5840;46.894;15.542;2023-07-28T13:52:03;31.80;91.30
11569;DHT22;5840;46.894;15.542;2023-07-28T13:54:30;31.90;91.40
11569;DHT22;5840;46.894;15.542;2023-07-28T13:56:58;31.90;90.10
11569;DHT22;5840;46.894;15.542;2023-07-28T13:59:25;32.00;92.00
11569;DHT22;5840;46.894;15.542;2023-07-28T14:01:52;31.90;90.00
11569;DHT22;5840;46.894;15.542;2023-07-28T14:04:21;31.80;90.10
11569;DHT22;5840;46.894;15.542;2023-07-28T14:06:47;31.60;85.80
11569;DHT22;5840;46.894;15.542;2023-07-28T14:09:14;31.60;91.80
11569;DHT22;5840;46.894;15.542;2023-07-28T14:11:41;31.70;92.70
11569;DHT22;5840;46.894;15.542;2023-07-28T14:14:09;31.60;89.60
11569;DHT22;5840;46.894;15.542;2023-07-28T14:16:36;31.70;91.50
11569;DHT22;5840;46.894;15.542;2023-07-28T14:19:03;31.60;90.80
11569;DHT22;5840;46.894;15.542;2023-07-28T14:21:30;31.50;93.00
11569;DHT22;5840;46.894;15.542;2023-07-28T14:23:58;31.40;89.50
11569;DHT22;5840;46.894;15.542;2023-07-28T14:26:25;31.30;92.30
11569;DHT22;5840;46.894;15.542;2023-07-28T14:28:52;31.00;87.80
11569;DHT22;5840;46.894;15.542;2023-07-28T14:31:20;31.10;92.60
11569;DHT22;5840;46.894;15.542;2023-07-28T14:33:47;31.00;93.20
11569;DHT22;5840;46.894;15.542;2023-07-28T14:36:14;30.90;90.50
11569;DHT22;5840;46.894;15.542;2023-07-28T14:38:41;30.80;92.40
11569;DHT22;5840;46.894;15.542;2023-07-28T14:41:07;30.80;91.30
11569;DHT22;5840;46.894;15.542;2023-07-28T14:43:34;30.80;92.20
11569;DHT22;5840;46.894;15.542;2023-07-28T14:46:01;30.70;90.80
11569;DHT22;5840;46.894;15.542;2023-07-28T14:48:29;30.70;92.30
11569;DHT22;5840;46.894;15.542;2023-07-28T14:50:56;30.70;92.00
11569;DHT22;5840;46.894;15.542;2023-07-28T14:53:31;30.70;92.10
11569;DHT22;5840;46.894;15.542;2023-07-28T14:55:58;30.50;91.50
11569;DHT22;5840;46.894;15.542;2023-07-28T14:58:26;30.50;92.70
11569;DHT22;5840;46.894;15.542;2023-07-28T15:00:53;30.40;92.50
11569;DHT22;5840;46.894;15.542;2023-07-28T15:03:20;30.30;91.30
11569;DHT22;5840;46.894;15.542;2023-07-28T15:05:49;30.20;92.40
11569;DHT22;5840;46.894;15.542;2023-07-28T15:08:15;30.20;93.20
11569;DHT22;5840;46.894;15.542;2023-07-28T15:10:42;30.20;93.10
11569;DHT22;5840;46.894;15.542;2023-07-28T15:13:09;30.00;92.60
11569;DHT22;5840;46.894;15.542;2023-07-28T15:15:36;30.00;93.60
11569;DHT22;5840;46.894;15.542;2023-07-28T15:18:04;30.00;93.10
11569;DHT22;5840;46.894;15.542;2023-07-28T15:20:30;29.90;92.40
11569;DHT22;5840;46.894;15.542;2023-07-28T15:22:59;29.90;91.90
11569;DHT22;5840;46.894;15.542;2023-07-28T15:25:26;29.90;94.10
11569;DHT22;5840;46.894;15.542;2023-07-28T15:27:53;29.80;93.10
11569;DHT22;5840;46.894;15.542;2023-07-28T15:30:20;29.80;94.40
11569;DHT22;5840;46.894;15.542;2023-07-28T15:32:47;29.60;94.80
11569;DHT22;5840;46.894;15.542;2023-07-28T15:35:14;29.50;94.40